Time;durP1;ratioP1;P1;durP2;ratioP2;P2;SDS_P1;SDS_P2;PMS_P1;PMS_P2;Temp;Humidity;BMP_temperature;BMP_pressure;BME280_temperature;BME280_humidity;BME280_pressure;Samples;Min_cycle;Max_cycle;Signal;HPM_P1;HPM_P2
2021/05/06 00:33:42;;;;;;;48.67;8.45;;;;;;;32.18;55.88;100947.53;5051375;28;70602;-36
2021/05/06 00:36:11;;;;;;;31.10;8.00;;;;;;;32.26;55.98;100960.81;5055414;28;66114;-36
2021/05/06 00:38:54;;;;;;;38.42;8.70;;;;;;;32.29;55.89;100964.97;5065143;28;70124;-35
2021/05/06 01:01:07;;;;;;;21.95;7.50;;;;;;;32.51;54.35;100989.75;5047735;28;70256;-36
2021/05/06 01:06:19;;;;;;;18.40;6.93;;;;;;;32.57;53.87;100993.44;5056339;28;69304;-37
2021/05/06 01:09:04;;;;;;;28.23;7.07;;;;;;;32.57;53.70;100994.28;5054596;28;66084;-35
2021/05/06 01:11:41;;;;;;;25.38;6.95;;;;;;;32.61;53.62;101000.91;5053771;28;70278;-36
2021/05/06 01:14:11;;;;;;;26.67;7.18;;;;;;;32.67;53.48;100994.53;5057603;28;65860;-36
2021/05/06 01:16:59;;;;;;;26.52;6.07;;;;;;;32.69;53.38;101002.47;5056717;28;69203;-36
2021/05/06 01:19:31;;;;;;;23.73;6.90;;;;;;;32.60;53.06;100987.56;5040418;28;66311;-36
2021/05/06 01:22:01;;;;;;;16.90;6.25;;;;;;;32.76;52.96;101008.63;5050439;28;71749;-36
2021/05/06 01:24:33;;;;;;;25.75;6.32;;;;;;;32.77;53.29;101004.88;5053160;28;66272;-36
2021/05/06 01:27:13;;;;;;;26.47;6.20;;;;;;;32.79;52.96;101004.63;5039956;28;69809;-36
2021/05/06 01:32:39;;;;;;;18.00;5.65;;;;;;;32.86;52.96;101011.63;5059980;28;69902;-36
2021/05/06 01:35:19;;;;;;;10.32;5.57;;;;;;;32.91;52.65;101028.06;5041069;28;66705;-36
2021/05/06 01:38:02;;;;;;;16.50;6.28;;;;;;;32.94;52.43;101024.88;5056315;28;69017;-36
2021/05/06 01:43:22;;;;;;;20.52;6.18;;;;;;;32.99;52.37;101015.19;5049444;28;70181;-35
2021/05/06 02:00:28;;;;;;;16.45;6.38;;;;;;;33.23;51.76;101024.28;5046430;28;70557;-35
2021/05/06 02:03:09;;;;;;;14.25;5.05;;;;;;;33.28;51.72;101017.09;5040716;28;65665;-36
2021/05/06 02:05:41;;;;;;;10.88;5.55;;;;;;;33.28;51.93;101008.94;5042865;28;68852;-36
2021/05/06 02:08:12;;;;;;;19.38;5.53;;;;;;;33.33;51.74;101009.06;5054799;28;65377;-36
2021/05/06 02:10:47;;;;;;;12.43;5.35;;;;;;;33.38;51.83;101016.53;5052159;28;69324;-36
2021/05/06 02:13:24;;;;;;;15.57;5.55;;;;;;;33.40;51.60;101025.25;5042743;28;66450;-36
2021/05/06 02:16:00;;;;;;;13.40;5.70;;;;;;;33.42;51.45;101019.59;5053636;28;70299;-36
2021/05/06 02:18:34;;;;;;;12.40;5.43;;;;;;;33.44;51.56;101017.47;5039414;28;65898;-36
2021/05/06 02:21:04;;;;;;;18.63;5.80;;;;;;;33.49;51.42;101009.41;5049029;28;70148;-36
2021/05/06 02:23:36;;;;;;;16.55;5.60;;;;;;;33.54;51.01;101009.59;5053465;28;65560;-36
2021/05/06 02:26:06;;;;;;;16.70;5.30;;;;;;;33.56;51.10;101013.72;5052653;28;70667;-36
2021/05/06 02:28:36;;;;;;;7.22;5.03;;;;;;;33.61;51.18;101004.88;5044707;28;66151;-36
2021/05/06 02:31:06;;;;;;;14.15;5.38;;;;;;;33.63;50.80;101007.34;5047667;28;69667;-36
2021/05/06 02:33:36;;;;;;;12.05;5.30;;;;;;;33.68;50.68;100999.28;5039845;28;65985;-36
2021/05/06 02:36:06;;;;;;;9.70;5.32;;;;;;;33.69;51.05;101001.78;5055030;28;70660;-36
2021/05/06 02:38:36;;;;;;;7.68;4.75;;;;;;;33.74;50.64;101004.63;5054747;28;65949;-36
2021/05/06 02:41:06;;;;;;;8.27;5.15;;;;;;;33.75;50.61;100998.13;5055825;28;70032;-36
2021/05/06 02:43:36;;;;;;;8.48;4.95;;;;;;;33.77;50.40;100998.72;5054827;28;65593;-36
2021/05/06 02:46:06;;;;;;;12.20;5.07;;;;;;;33.88;50.34;100993.47;5039555;28;69199;-35
2021/05/06 02:48:36;;;;;;;9.88;4.85;;;;;;;33.92;50.43;100991.97;5049974;28;66067;-37
2021/05/06 02:51:07;;;;;;;4.88;4.10;;;;;;;33.91;50.32;100985.69;5051276;28;69977;-36
2021/05/06 02:53:44;;;;;;;7.82;4.45;;;;;;;33.88;50.06;100977.16;5046070;28;65455;-35
2021/05/06 02:56:28;;;;;;;11.35;4.72;;;;;;;33.97;50.30;100975.75;5043069;28;69249;-35
2021/05/06 03:04:19;;;;;;;9.10;4.72;;;;;;;34.12;49.80;100981.53;5047404;28;65585;-35
2021/05/06 03:06:56;;;;;;;5.78;4.88;;;;;;;34.14;50.02;100987.56;5042322;28;69286;-35
2021/05/06 03:23:36;;;;;;;4.85;4.40;;;;;;;34.32;49.25;100977.56;5044528;28;69876;-37
2021/05/06 03:26:05;;;;;;;9.60;4.55;;;;;;;34.42;49.29;100980.50;5049611;28;65308;-37
2021/05/06 03:28:40;;;;;;;13.15;4.75;;;;;;;34.46;49.18;100978.94;5037349;28;68458;-37
2021/05/06 04:18:15;;;;;;;5.55;3.80;;;;;;;35.10;48.00;100946.94;5060346;28;70289;-35
2021/05/06 04:26:30;;;;;;;6.57;4.05;;;;;;;35.24;47.60;100930.22;5059800;28;66243;-36
2021/05/06 04:37:29;;;;;;;14.57;3.22;;;;;;;35.38;47.69;100915.16;5043432;28;66432;-36
2021/05/06 04:40:03;;;;;;;7.72;3.80;;;;;;;35.40;47.55;100913.00;5042033;28;69295;-36
2021/05/06 04:56:58;;;;;;;8.38;3.58;;;;;;;35.52;47.10;100851.00;5057204;28;70607;-36
2021/05/06 05:04:48;;;;;;;9.63;3.20;;;;;;;35.71;47.01;100847.97;5051666;28;65432;-35
2021/05/06 05:07:26;;;;;;;11.55;3.53;;;;;;;35.72;46.75;100831.34;5053204;28;70048;-36
2021/05/06 05:18:02;;;;;;;4.55;3.00;;;;;;;35.78;46.74;100808.50;5058729;28;69499;-36
2021/05/06 05:20:44;;;;;;;6.72;3.25;;;;;;;35.81;46.79;100815.34;5043759;28;66234;-36
2021/05/06 05:23:37;;;;;;;3.75;3.45;;;;;;;35.83;46.49;100795.97;5021401;28;70045;-36
2021/05/06 05:26:10;;;;;;;3.33;3.03;;;;;;;35.91;46.52;100781.88;5056809;28;66741;-36
2021/05/06 05:28:40;;;;;;;7.43;3.10;;;;;;;35.90;46.94;100775.59;5045420;28;70313;-36
2021/05/06 05:31:11;;;;;;;3.72;2.83;;;;;;;35.92;46.75;100789.00;5059551;28;65842;-36
2021/05/06 05:34:01;;;;;;;10.20;3.17;;;;;;;35.94;46.66;100779.47;5057376;28;70540;-36
2021/05/06 05:36:32;;;;;;;6.30;2.85;;;;;;;36.00;46.65;100781.16;5058251;28;65367;-36
2021/05/06 05:39:22;;;;;;;3.40;2.90;;;;;;;35.98;46.40;100766.94;5039277;28;70407;-35
2021/05/06 05:42:00;;;;;;;7.28;2.60;;;;;;;35.99;46.10;100752.19;5059266;28;65928;-36
2021/05/06 05:47:57;;;;;;;5.38;2.97;;;;;;;36.12;46.26;100755.63;5058969;28;66200;-36
2021/05/06 05:55:42;;;;;;;6.80;3.47;;;;;;;36.21;45.88;100738.50;5055046;28;69617;-36
2021/05/06 05:58:12;;;;;;;3.20;2.92;;;;;;;36.26;45.67;100724.06;5052981;28;66079;-36
2021/05/06 06:00:42;;;;;;;3.10;2.80;;;;;;;36.26;46.52;100726.00;5065887;28;69649;-36
2021/05/06 06:03:13;;;;;;;7.80;2.70;;;;;;;36.28;45.90;100713.72;5044816;28;65958;-36
2021/05/06 06:05:44;;;;;;;3.80;3.23;;;;;;;36.30;46.02;100708.78;5056288;28;71169;-35
2021/05/06 06:08:18;;;;;;;4.15;2.92;;;;;;;36.23;46.21;100686.38;5058447;28;65264;-36
2021/05/06 06:10:49;;;;;;;4.00;2.45;;;;;;;36.29;46.31;100688.03;5054384;28;70031;-35
2021/05/06 06:13:20;;;;;;;3.00;2.70;;;;;;;36.39;46.10;100696.31;5065564;28;66746;-35
2021/05/06 06:18:26;;;;;;;3.92;2.90;;;;;;;36.44;45.71;100696.34;5057252;28;65434;-34
2021/05/06 06:21:06;;;;;;;4.28;2.83;;;;;;;36.50;46.08;100697.22;5066701;28;70408;-36
2021/05/06 06:23:36;;;;;;;5.38;2.95;;;;;;;36.47;45.98;100701.28;5044146;28;65170;-36
2021/05/06 06:26:06;;;;;;;3.13;2.75;;;;;;;36.53;45.85;100704.06;5056155;28;70010;-36
2021/05/06 06:28:42;;;;;;;12.70;2.88;;;;;;;36.52;45.61;100735.19;5058284;28;65492;-36
2021/05/06 06:31:28;;;;;;;5.63;2.72;;;;;;;36.49;45.49;100713.84;5054764;28;69576;-36
2021/05/06 06:33:58;;;;;;;11.52;2.95;;;;;;;36.52;45.97;100705.94;5062125;28;66046;-37
2021/05/06 06:36:31;;;;;;;8.57;3.10;;;;;;;36.55;45.35;100704.63;5063866;27;69768;-35
2021/05/06 06:39:02;;;;;;;4.32;2.72;;;;;;;36.57;45.79;100697.81;5078407;27;65568;-36
2021/05/06 06:41:33;;;;;;;7.40;2.80;;;;;;;36.61;45.81;100703.56;5072510;27;70029;-35
2021/05/06 06:44:04;;;;;;;6.90;2.75;;;;;;;36.63;45.70;100687.75;5054198;28;66494;-37
2021/05/06 06:46:34;;;;;;;6.57;3.15;;;;;;;36.69;45.28;100683.94;5056474;28;69796;-36
2021/05/06 06:49:05;;;;;;;3.73;2.73;;;;;;;36.68;45.66;100680.41;5056891;28;65679;-36
2021/05/06 06:51:35;;;;;;;6.00;2.53;;;;;;;36.67;45.21;100669.75;5068738;28;70241;-36
2021/05/06 06:54:09;;;;;;;2.40;2.20;;;;;;;36.71;45.60;100662.66;5056692;28;66111;-37
2021/05/06 06:56:39;;;;;;;6.65;2.70;;;;;;;36.71;45.29;100648.97;5056417;28;69930;-36
2021/05/06 06:59:10;;;;;;;10.63;3.28;;;;;;;36.74;45.56;100658.56;5045323;28;65297;-36
2021/05/06 07:01:40;;;;;;;6.00;2.60;;;;;;;36.72;45.26;100671.66;5055541;28;69393;-36
2021/05/06 07:04:11;;;;;;;5.30;3.10;;;;;;;36.74;45.53;100708.56;5058727;28;65643;-36
2021/05/06 07:06:42;;;;;;;13.32;2.55;;;;;;;36.71;45.20;100730.97;5054689;28;71570;-35
2021/05/06 07:09:12;;;;;;;11.70;2.95;;;;;;;36.70;45.49;100674.69;5057398;28;65498;-35
2021/05/06 07:11:42;;;;;;;8.00;2.80;;;;;;;36.79;46.07;100697.69;5055815;28;69527;-35
2021/05/06 07:14:13;;;;;;;6.90;2.90;;;;;;;36.78;45.34;100695.22;5065875;28;66655;-37
2021/05/06 07:16:44;;;;;;;4.35;2.80;;;;;;;36.78;45.23;100704.25;5055848;28;71549;-35
2021/05/06 07:19:14;;;;;;;4.05;2.67;;;;;;;36.73;45.97;100676.88;5057033;28;66590;-36
2021/05/06 07:21:46;;;;;;;6.72;2.55;;;;;;;36.73;45.14;100657.75;5060772;28;71881;-36
2021/05/06 07:24:16;;;;;;;2.75;2.20;;;;;;;36.76;45.55;100661.88;5067061;27;65563;-36
2021/05/06 07:26:50;;;;;;;4.15;2.20;;;;;;;36.75;45.29;100650.13;5055894;28;70374;-35
2021/05/06 07:29:22;;;;;;;5.32;2.38;;;;;;;36.72;45.08;100647.91;5069647;28;65193;-35
2021/05/06 07:31:54;;;;;;;4.97;2.47;;;;;;;36.70;45.50;100666.47;5059251;28;70227;-37
2021/05/06 07:34:27;;;;;;;2.60;2.03;;;;;;;36.66;46.05;100659.88;5065226;27;66245;-36
2021/05/06 07:36:58;;;;;;;4.45;2.20;;;;;;;36.69;45.70;100667.56;5069998;28;68948;-36
2021/05/06 07:39:29;;;;;;;6.28;2.60;;;;;;;36.61;45.85;100668.91;5063367;27;67179;-36
2021/05/06 07:42:00;;;;;;;;;;;;;;;36.58;45.98;100676.78;5063892;28;69734;-36
2021/05/06 07:44:32;;;;;;;;;;;;;;;36.62;45.52;100672.44;5074638;27;65522;-36
2021/05/06 07:47:13;;;;;;;5.32;2.63;;;;;;;36.63;45.39;100663.16;5056855;28;70046;-36
2021/05/06 07:49:49;;;;;;;2.78;1.80;;;;;;;36.58;45.53;100676.78;5055926;28;65727;-36
2021/05/06 07:52:22;;;;;;;3.55;2.40;;;;;;;36.54;45.88;100678.41;5058042;28;70334;-36
2021/05/06 07:54:57;;;;;;;4.78;2.03;;;;;;;36.51;45.67;100693.38;5056827;28;65373;-36
2021/05/06 07:57:27;;;;;;;5.05;2.38;;;;;;;36.47;46.24;100704.03;5067039;28;70031;-36
2021/05/06 07:59:57;;;;;;;4.82;2.17;;;;;;;36.41;46.01;100683.22;5063291;28;66029;-36
2021/05/06 08:02:28;;;;;;;5.05;2.30;;;;;;;36.35;46.13;100681.53;5063972;27;69313;-36
2021/05/06 08:04:58;;;;;;;3.92;2.28;;;;;;;36.37;45.97;100670.34;5056514;28;65449;-35
2021/05/06 08:07:27;;;;;;;2.80;2.35;;;;;;;36.36;46.26;100661.34;5064923;27;69308;-34
2021/05/06 08:09:57;;;;;;;2.20;2.00;;;;;;;36.35;46.67;100659.69;5055138;28;65191;-35
2021/05/06 08:12:27;;;;;;;3.13;2.15;;;;;;;36.36;46.55;100652.31;5043678;28;70100;-35
2021/05/06 08:14:57;;;;;;;4.22;2.17;;;;;;;36.35;46.55;100646.03;5056761;28;66009;-35
2021/05/06 08:17:27;;;;;;;5.20;2.40;;;;;;;36.34;46.67;100652.56;5067387;28;70489;-36
2021/05/06 08:19:57;;;;;;;2.40;2.20;;;;;;;36.33;46.80;100656.41;5056537;28;65032;-35
2021/05/06 08:22:27;;;;;;;3.30;2.55;;;;;;;36.30;46.46;100662.38;5055081;28;70303;-35
2021/05/06 08:24:57;;;;;;;2.95;2.00;;;;;;;36.30;46.55;100661.56;5071361;28;66274;-35
2021/05/06 08:27:27;;;;;;;6.43;2.35;;;;;;;36.27;46.93;100660.16;5042888;28;69852;-35
2021/05/06 08:29:58;;;;;;;4.57;2.15;;;;;;;36.29;46.35;100674.38;5058024;28;66053;-35
2021/05/06 08:32:29;;;;;;;5.75;2.55;;;;;;;36.26;46.75;100671.38;5049874;28;70085;-35
2021/05/06 08:34:59;;;;;;;5.53;2.03;;;;;;;36.28;46.48;100680.13;5063301;27;67072;-36
2021/05/06 08:37:29;;;;;;;2.75;2.28;;;;;;;36.27;46.62;100683.94;5046953;28;69884;-37
2021/05/06 08:40:01;;;;;;;3.13;2.20;;;;;;;36.26;46.76;100696.75;5064518;27;66380;-35
2021/05/06 08:42:35;;;;;;;4.68;2.15;;;;;;;36.23;46.85;100694.56;5069888;28;70309;-35
2021/05/06 08:45:06;;;;;;;5.93;2.97;;;;;;;36.18;47.33;100699.97;5066074;28;65859;-35
2021/05/06 08:47:37;;;;;;;8.18;2.72;;;;;;;36.22;47.19;100703.84;5058553;27;68822;-35
2021/05/06 08:50:08;;;;;;;3.35;2.58;;;;;;;36.21;47.38;100713.09;5066969;28;65146;-35
2021/05/06 08:52:41;;;;;;;2.20;1.98;;;;;;;36.01;46.71;100684.53;5057245;28;69351;-36
2021/05/06 08:55:10;;;;;;;2.83;2.53;;;;;;;36.19;47.11;100713.38;5056782;28;65869;-36
2021/05/06 08:57:40;;;;;;;3.35;2.35;;;;;;;36.19;46.86;100723.47;5070440;28;70156;-35
2021/05/06 09:00:11;;;;;;;2.50;2.05;;;;;;;36.13;46.88;100713.59;5059982;28;65493;-35
2021/05/06 09:02:47;;;;;;;4.47;2.72;;;;;;;36.11;47.05;100702.94;5059559;28;69333;-36
2021/05/06 09:05:22;;;;;;;4.57;2.47;;;;;;;36.12;47.44;100703.75;5060184;28;66163;-37
2021/05/06 09:07:52;;;;;;;3.45;3.08;;;;;;;36.11;47.54;100697.47;5070042;28;69852;-36
2021/05/06 09:10:42;;;;;;;5.80;2.83;;;;;;;36.05;46.95;100678.53;5060383;28;65505;-36
2021/05/06 09:13:30;;;;;;;4.10;2.55;;;;;;;36.09;47.29;100671.50;5047531;28;69581;-36
2021/05/06 09:16:04;;;;;;;7.10;2.80;;;;;;;36.08;47.71;100672.59;5058651;28;65169;-35
2021/05/06 09:18:47;;;;;;;7.65;2.70;;;;;;;36.13;47.33;100686.28;5059751;28;69866;-36
2021/05/06 09:21:29;;;;;;;3.53;2.83;;;;;;;36.02;47.15;100686.19;5060411;28;66205;-35
2021/05/06 09:24:08;;;;;;;6.03;3.05;;;;;;;36.12;47.61;100712.78;5070040;27;69443;-35
2021/05/06 09:26:39;;;;;;;6.20;2.75;;;;;;;36.13;47.72;100713.59;5059157;28;66445;-36
2021/05/06 09:29:10;;;;;;;;;;;;;;;36.02;47.87;100727.13;5057935;28;69077;-36
2021/05/06 09:31:42;;;;;;;5.85;3.20;;;;;;;36.00;47.12;100723.84;5059749;28;66451;-35
2021/05/06 09:34:12;;;;;;;;;;;;;;;36.11;47.79;100748.50;5063857;28;69946;-35
2021/05/06 09:36:44;;;;;;;7.22;2.72;;;;;;;36.00;47.84;100734.75;5057935;28;66122;-35
2021/05/06 09:39:15;;;;;;;4.90;3.03;;;;;;;36.08;47.97;100754.50;5056275;28;70014;-35
2021/05/06 09:41:45;;;;;;;5.40;3.25;;;;;;;36.07;47.64;100755.59;5052622;28;65508;-35
2021/05/06 09:44:20;;;;;;;5.25;2.90;;;;;;;36.05;47.69;100753.09;5039962;28;69441;-36
2021/05/06 09:46:58;;;;;;;4.60;3.08;;;;;;;36.01;47.97;100766.41;5041885;28;65904;-35
2021/05/06 09:49:39;;;;;;;5.18;3.13;;;;;;;35.91;47.83;100760.03;5056381;28;70168;-35
2021/05/06 09:52:09;;;;;;;4.75;3.50;;;;;;;36.00;47.96;100781.16;5048205;28;65452;-39
2021/05/06 09:54:55;;;;;;;6.57;3.13;;;;;;;35.98;47.63;100791.50;5045534;28;69814;-36
2021/05/06 09:57:30;;;;;;;9.32;3.65;;;;;;;35.98;48.25;100794.25;5037912;28;65846;-35
2021/05/06 10:00:17;;;;;;;6.72;2.97;;;;;;;35.83;48.20;100791.38;5054457;28;70412;-35
2021/05/06 10:02:47;;;;;;;8.48;3.40;;;;;;;35.88;48.65;100815.97;5044683;28;66510;-34
2021/05/06 10:05:38;;;;;;;9.23;3.50;;;;;;;35.81;49.13;100809.91;5042110;28;70015;-34
2021/05/06 10:08:08;;;;;;;12.15;5.07;;;;;;;35.72;48.78;100817.72;5048456;28;64903;-35
2021/05/06 10:10:40;;;;;;;13.52;4.65;;;;;;;35.61;49.16;100812.38;5050695;28;69190;-36
2021/05/06 10:13:12;;;;;;;13.50;5.68;;;;;;;35.38;49.46;100792.41;5045040;28;66231;-36
2021/05/06 10:15:42;;;;;;;11.03;5.47;;;;;;;35.38;50.16;100803.31;5039208;28;70208;-36
2021/05/06 10:18:16;;;;;;;10.43;5.88;;;;;;;35.28;50.08;100795.84;5051564;28;65816;-36
2021/05/06 10:20:47;;;;;;;18.83;5.78;;;;;;;35.24;49.96;100816.50;5048414;28;69251;-36
2021/05/06 10:23:17;;;;;;;11.52;4.57;;;;;;;35.09;51.05;100803.50;5044940;28;66714;-36
2021/05/06 10:25:48;;;;;;;17.52;4.85;;;;;;;34.89;51.62;100803.19;5041602;28;70282;-36
2021/05/06 10:28:19;;;;;;;22.53;5.60;;;;;;;34.74;52.17;100811.09;5043465;28;67049;-36
2021/05/06 10:30:49;;;;;;;10.35;5.32;;;;;;;34.66;52.65;100821.38;5050893;28;69574;-35
2021/05/06 10:33:26;;;;;;;23.93;6.20;;;;;;;34.60;53.10;100826.97;5056759;27;66014;-36
2021/05/06 10:36:02;;;;;;;20.13;6.38;;;;;;;34.40;53.43;100805.63;5064393;28;70059;-35
2021/05/06 10:38:34;;;;;;;16.88;6.20;;;;;;;34.46;53.74;100840.03;5059460;27;65968;-34
2021/05/06 10:41:22;;;;;;;19.17;6.38;;;;;;;34.31;55.21;100839.78;5056134;28;70462;-34
2021/05/06 10:43:54;;;;;;;15.07;5.47;;;;;;;34.29;54.37;100852.81;5051040;28;66576;-35
2021/05/06 10:46:46;;;;;;;21.17;5.78;;;;;;;34.22;55.49;100853.78;5052727;28;70202;-36
2021/05/06 10:49:16;;;;;;;20.02;6.82;;;;;;;34.33;54.63;100862.16;5058387;28;65402;-36
2021/05/06 10:51:48;;;;;;;19.05;6.03;;;;;;;34.32;54.65;100857.75;5042956;28;70281;-35
2021/05/06 10:54:31;;;;;;;13.82;5.53;;;;;;;34.30;55.42;100849.00;5072387;28;66727;-35
2021/05/06 10:57:22;;;;;;;20.23;7.00;;;;;;;34.18;55.77;100855.34;5063841;27;70075;-36
2021/05/06 10:59:55;;;;;;;18.35;8.02;;;;;;;34.15;55.01;100861.25;5061553;28;66432;-35
2021/05/06 11:02:38;;;;;;;21.10;6.60;;;;;;;34.10;55.69;100865.78;5057322;28;69963;-35
2021/05/06 11:05:17;;;;;;;20.52;5.82;;;;;;;34.05;55.54;100874.69;5051721;28;65881;-35
2021/05/06 11:08:23;;;;;;;19.90;6.53;;;;;;;33.90;56.29;100869.72;5049165;28;70076;-36
2021/05/06 11:10:53;;;;;;;17.77;5.88;;;;;;;33.94;55.52;100878.25;5064306;28;66432;-35
2021/05/06 11:13:28;;;;;;;16.60;5.43;;;;;;;33.87;55.26;100883.00;5046545;28;69307;-35
2021/05/06 11:16:17;;;;;;;23.80;6.45;;;;;;;33.71;56.54;100884.56;5064356;28;65383;-35
2021/05/06 11:18:52;;;;;;;21.55;7.88;;;;;;;33.76;55.63;100899.09;5057982;28;69208;-34
2021/05/06 11:21:31;;;;;;;20.90;7.45;;;;;;;33.71;56.52;100896.28;5056871;28;65376;-36
2021/05/06 11:24:17;;;;;;;17.60;7.88;;;;;;;33.65;56.38;100902.66;5057874;28;69992;-38
2021/05/06 11:27:08;;;;;;;16.73;7.38;;;;;;;33.63;56.41;100912.97;5065068;28;65972;-36
2021/05/06 11:29:41;;;;;;;19.20;7.47;;;;;;;33.54;56.19;100895.34;5056330;28;69780;-35
2021/05/06 11:32:24;;;;;;;12.35;6.90;;;;;;;33.56;56.73;100920.44;5047085;28;66340;-37
2021/05/06 11:34:54;;;;;;;17.45;7.53;;;;;;;33.60;56.29;100921.63;5058063;28;70436;-36
2021/05/06 11:37:27;;;;;;;24.48;7.68;;;;;;;33.63;56.54;100923.88;5067183;27;66300;-35
2021/05/06 11:40:04;;;;;;;28.90;7.43;;;;;;;33.58;57.00;100935.44;5048088;28;69224;-36
2021/05/06 11:42:39;;;;;;;23.67;6.60;;;;;;;33.53;56.50;100932.59;5052548;28;64219;-39
2021/05/06 11:45:20;;;;;;;20.73;7.20;;;;;;;33.33;56.78;100916.63;5056460;28;69388;-35
2021/05/06 11:47:53;;;;;;;13.43;6.63;;;;;;;33.32;57.03;100904.09;5056054;28;66012;-35
2021/05/06 11:50:28;;;;;;;23.77;7.15;;;;;;;33.42;57.10;100913.56;5058123;27;70009;-35
2021/05/06 11:53:00;;;;;;;24.50;7.38;;;;;;;33.33;56.93;100894.88;5047560;28;66239;-36
2021/05/06 11:55:33;;;;;;;28.85;7.68;;;;;;;33.41;56.95;100906.47;5055421;28;69426;-35
2021/05/06 11:58:04;;;;;;;23.90;7.40;;;;;;;33.42;57.38;100914.38;5055231;28;66047;-32
2021/05/06 12:00:34;;;;;;;16.55;6.45;;;;;;;33.36;57.36;100910.72;5055230;28;69542;-32
2021/05/06 12:03:07;;;;;;;22.80;7.40;;;;;;;33.28;58.18;100902.91;5055822;28;66269;-33
2021/05/06 12:06:01;;;;;;;24.25;7.97;;;;;;;33.22;58.16;100903.84;5055261;28;70147;-33
2021/05/06 12:08:44;;;;;;;23.63;8.75;;;;;;;33.24;58.12;100907.16;5054906;28;66096;-33
2021/05/06 12:11:14;;;;;;;20.80;8.40;;;;;;;33.32;57.95;100909.53;5051219;28;70842;-34
2021/05/06 12:13:45;;;;;;;24.70;8.25;;;;;;;33.33;58.22;100908.47;5046699;28;65529;-33
2021/05/06 12:16:26;;;;;;;20.97;8.70;;;;;;;33.27;58.60;100912.13;5043853;28;70012;-32
2021/05/06 12:19:16;;;;;;;26.45;8.82;;;;;;;33.30;58.52;100908.94;5043755;28;66154;-32
2021/05/06 12:21:55;;;;;;;20.17;8.27;;;;;;;33.18;58.97;100897.22;5052818;28;70102;-34
2021/05/06 12:24:27;;;;;;;22.63;8.25;;;;;;;33.27;58.75;100917.56;5055252;28;65468;-33
2021/05/06 12:27:17;;;;;;;25.05;7.50;;;;;;;33.25;58.61;100919.69;5050232;28;70354;-34
2021/05/06 12:29:52;;;;;;;16.17;7.75;;;;;;;33.27;59.37;100923.00;5049731;28;64831;-33
2021/05/06 12:32:30;;;;;;;25.33;8.13;;;;;;;33.18;58.67;100918.97;5059041;28;69857;-33
2021/05/06 12:35:01;;;;;;;21.80;7.45;;;;;;;33.42;57.99;100919.81;5058918;28;65957;-33
2021/05/06 12:37:32;;;;;;;20.42;7.72;;;;;;;33.56;57.65;100926.69;5060052;28;70185;-33
2021/05/06 12:40:09;;;;;;;18.70;7.45;;;;;;;33.64;57.55;100920.06;5056707;28;66159;-33
2021/05/06 12:42:39;;;;;;;21.85;7.38;;;;;;;33.45;56.20;100913.06;5051217;28;69102;-33
2021/05/06 12:45:16;;;;;;;17.85;7.95;;;;;;;33.22;55.59;100925.59;5052261;28;65431;-34
2021/05/06 12:47:49;;;;;;;17.85;7.35;;;;;;;32.99;54.54;100925.53;5055453;28;69053;-33
2021/05/06 12:50:30;;;;;;;21.00;6.45;;;;;;;32.88;55.44;100925.28;5036702;28;66057;-36
2021/05/06 12:53:08;;;;;;;16.83;7.13;;;;;;;32.60;54.99;100900.66;5049826;28;70184;-41
2021/05/06 12:55:40;;;;;;;16.85;6.25;;;;;;;32.66;54.92;100905.16;5055361;28;65621;-34
2021/05/06 12:58:16;;;;;;;10.32;5.35;;;;;;;32.66;53.30;100922.28;5050179;28;70124;-34
2021/05/06 13:00:54;;;;;;;9.40;4.88;;;;;;;32.55;53.13;100920.34;5055683;28;65950;-35
2021/05/06 13:03:32;;;;;;;9.32;5.22;;;;;;;32.44;51.34;100902.91;5035029;28;69459;-34
2021/05/06 13:06:06;;;;;;;17.83;4.90;;;;;;;32.37;51.81;100929.31;5041941;28;65503;-35
2021/05/06 13:08:39;;;;;;;15.73;5.47;;;;;;;32.24;52.01;100927.63;5043999;28;69612;-34
2021/05/06 13:11:10;;;;;;;;;;;;;;;32.12;51.73;100925.91;5055486;28;66074;-35
2021/05/06 13:13:48;;;;;;;7.88;4.97;;;;;;;32.10;52.78;100933.47;5045186;28;69855;-34
2021/05/06 13:16:35;;;;;;;15.73;5.25;;;;;;;32.16;52.03;100932.53;5044688;28;66889;-34
2021/05/06 13:19:12;;;;;;;14.70;5.25;;;;;;;32.03;51.16;100923.50;5047751;28;70194;-34
2021/05/06 13:21:57;;;;;;;26.95;5.82;;;;;;;32.00;50.60;100917.69;5065705;28;65892;-35
2021/05/06 13:24:50;;;;;;;28.77;5.80;;;;;;;31.97;50.78;100935.25;5046450;28;69760;-33
2021/05/06 13:27:26;;;;;;;30.52;6.53;;;;;;;31.92;50.44;100926.16;5058936;27;66469;-35
2021/05/06 13:29:58;;;;;;;32.28;6.28;;;;;;;31.88;51.24;100914.06;5065866;28;69698;-35
2021/05/06 13:32:38;;;;;;;27.10;5.82;;;;;;;31.99;50.19;100927.72;5054695;28;65755;-35
2021/05/06 13:35:16;;;;;;;26.45;6.10;;;;;;;31.93;50.28;100928.66;5072800;28;69782;-35
2021/05/06 13:37:47;;;;;;;11.05;5.13;;;;;;;31.95;50.56;100918.38;5059192;28;65560;-35
2021/05/06 13:40:17;;;;;;;13.35;6.20;;;;;;;31.86;50.02;100922.41;5046285;28;68630;-35
2021/05/06 13:42:55;;;;;;;20.80;5.85;;;;;;;31.80;49.93;100928.75;5063885;27;66212;-35
2021/05/06 13:45:25;;;;;;;14.20;5.35;;;;;;;31.78;49.36;100925.44;5058069;28;69960;-34
2021/05/06 13:47:56;;;;;;;14.43;5.70;;;;;;;31.70;50.87;100929.25;5058269;28;65284;-34
2021/05/06 13:50:28;;;;;;;14.50;5.15;;;;;;;31.72;50.09;100939.91;5057731;28;72011;-35
2021/05/06 13:53:00;;;;;;;17.20;5.63;;;;;;;31.72;50.14;100942.59;5060062;27;67662;-34
2021/05/06 13:55:30;;;;;;;15.20;5.90;;;;;;;31.71;51.41;100946.38;5074374;28;68721;-35
2021/05/06 13:58:03;;;;;;;15.82;6.97;;;;;;;31.72;51.87;100943.44;5045740;28;66185;-34
2021/05/06 14:00:34;;;;;;;19.15;7.43;;;;;;;31.72;52.37;100943.44;5062342;28;70200;-34
2021/05/06 14:03:04;;;;;;;22.65;7.20;;;;;;;31.73;52.52;100941.53;5052613;27;65885;-34
2021/05/06 14:05:35;;;;;;;21.20;7.13;;;;;;;31.69;52.84;100954.72;5059499;27;70789;-33
2021/05/06 14:08:14;;;;;;;19.20;7.07;;;;;;;31.64;53.05;100961.88;5057242;28;65478;-35
2021/05/06 14:10:45;;;;;;;19.50;6.88;;;;;;;31.52;53.32;100959.91;5057760;27;70420;-35
2021/05/06 14:13:17;;;;;;;36.03;8.07;;;;;;;31.48;53.44;100961.41;5051985;28;67034;-33
2021/05/06 14:15:49;;;;;;;18.80;7.32;;;;;;;31.25;53.90;100958.44;5051964;28;70530;-33
2021/05/06 14:18:20;;;;;;;22.65;7.60;;;;;;;31.09;53.81;100965.22;5064216;27;66574;-34
2021/05/06 14:20:52;;;;;;;24.52;8.63;;;;;;;31.09;55.02;100971.50;5065449;27;69922;-33
2021/05/06 14:23:22;;;;;;;;;;;;;;;30.89;55.56;100970.78;5056377;28;66795;-33
2021/05/06 14:25:57;;;;;;;17.80;7.68;;;;;;;30.94;55.29;100976.38;5054947;28;70685;-34
2021/05/06 14:28:27;;;;;;;16.80;8.00;;;;;;;30.78;54.97;100968.75;5048498;28;66240;-33
2021/05/06 14:30:59;;;;;;;21.98;8.80;;;;;;;30.78;54.39;100985.00;5054627;28;70004;-35
2021/05/06 14:33:30;;;;;;;13.85;7.85;;;;;;;30.74;53.99;100990.03;5067624;27;65642;-35
2021/05/06 14:36:04;;;;;;;11.52;7.57;;;;;;;30.64;54.29;101001.31;5051750;27;70663;-34
2021/05/06 14:38:36;;;;;;;11.98;8.05;;;;;;;30.60;53.58;101010.91;5053712;28;65547;-34
2021/05/06 14:41:08;;;;;;;10.87;7.30;;;;;;;30.56;53.68;101020.50;5050904;28;70320;-34
2021/05/06 14:43:44;;;;;;;18.88;8.45;;;;;;;30.50;53.10;101015.94;5060092;28;65602;-33
2021/05/06 14:46:14;;;;;;;11.23;7.82;;;;;;;30.43;53.39;101021.41;5064548;28;70753;-36
2021/05/06 14:48:48;;;;;;;13.20;8.70;;;;;;;30.38;53.06;101034.75;5048258;28;66521;-33
2021/05/06 14:51:19;;;;;;;12.55;7.65;;;;;;;30.30;53.12;101042.25;5054183;28;69948;-35
2021/05/06 14:53:50;;;;;;;10.47;8.67;;;;;;;30.27;52.69;101051.63;5027444;28;65485;-34
2021/05/06 14:56:21;;;;;;;11.35;7.90;;;;;;;30.23;52.56;101053.94;5057307;28;70152;-35
2021/05/06 14:58:53;;;;;;;12.23;8.02;;;;;;;30.18;52.75;101056.41;5058619;27;66398;-36
2021/05/06 15:01:25;;;;;;;12.55;8.52;;;;;;;30.11;52.73;101050.19;5057782;28;70947;-35
2021/05/06 15:03:55;;;;;;;11.25;8.20;;;;;;;30.10;52.59;101053.94;5053753;28;66328;-34
2021/05/06 15:06:26;;;;;;;10.55;8.32;;;;;;;30.09;52.47;101063.09;5047397;28;69244;-34
2021/05/06 15:09:00;;;;;;;8.30;7.55;;;;;;;30.07;52.63;101070.59;5054296;28;65795;-34